Time;durP1;ratioP1;P1;durP2;ratioP2;P2;SDS_P1;SDS_P2;PMS_P1;PMS_P2;Temp;Humidity;BMP_temperature;BMP_pressure;BME280_temperature;BME280_humidity;BME280_pressure;Samples;Min_cycle;Max_cycle;Signal;HPM_P1;HPM_P2
2022/01/07 00:01:26;;;;;;;19.23;12.10;;;1.40;99.90;;;;;;5097889;28;20179;-85
2022/01/07 00:03:51;;;;;;;21.50;10.27;;;1.30;99.90;;;;;;5116707;28;20902;-84
2022/01/07 00:06:18;;;;;;;30.43;14.77;;;1.20;99.90;;;;;;5115144;28;20636;-88
2022/01/07 00:08:46;;;;;;;20.57;11.43;;;1.20;99.90;;;;;;5114862;28;20469;-85
2022/01/07 00:11:12;;;;;;;20.60;11.30;;;1.20;99.90;;;;;;5113634;28;20465;-85
2022/01/07 00:13:38;;;;;;;28.70;12.20;;;1.20;99.90;;;;;;5115023;28;20500;-86
2022/01/07 00:16:04;;;;;;;24.90;10.27;;;1.20;99.90;;;;;;5097407;28;20759;-85
2022/01/07 00:18:32;;;;;;;25.47;11.53;;;1.10;99.90;;;;;;5114860;28;20679;-84
2022/01/07 00:20:58;;;;;;;28.90;13.77;;;1.10;99.90;;;;;;5115456;28;20416;-84
2022/01/07 00:23:24;;;;;;;20.53;12.00;;;1.10;99.90;;;;;;5115176;28;20921;-85
2022/01/07 00:25:49;;;;;;;25.53;13.27;;;1.10;99.90;;;;;;5115318;28;20257;-86
2022/01/07 00:28:16;;;;;;;25.23;12.17;;;1.10;99.90;;;;;;5097117;28;20175;-86
2022/01/07 00:30:41;;;;;;;20.03;12.77;;;1.10;99.90;;;;;;5096875;28;20167;-85
2022/01/07 00:33:10;;;;;;;23.80;14.37;;;1.20;99.90;;;;;;5114780;28;20764;-85
2022/01/07 00:35:36;;;;;;;18.93;12.60;;;1.20;99.90;;;;;;5115185;28;20639;-87
2022/01/07 00:38:03;;;;;;;24.00;12.93;;;1.20;99.90;;;;;;5093137;28;20478;-84
2022/01/07 00:40:31;;;;;;;25.20;14.20;;;1.20;99.90;;;;;;5094593;28;20241;-84
2022/01/07 00:43:00;;;;;;;28.83;12.30;;;1.20;99.90;;;;;;5094755;28;20436;-84
2022/01/07 00:45:26;;;;;;;29.03;13.77;;;1.20;99.90;;;;;;5095658;28;20414;-84
2022/01/07 00:47:53;;;;;;;24.70;11.63;;;1.20;99.90;;;;;;5095011;28;20845;-84
2022/01/07 00:50:21;;;;;;;25.37;14.93;;;1.20;99.90;;;;;;5095496;28;20769;-86
2022/01/07 00:52:47;;;;;;;26.90;15.10;;;1.20;99.90;;;;;;5103647;28;20437;-84
2022/01/07 00:55:18;;;;;;;25.77;15.07;;;1.20;99.90;;;;;;5094938;28;20489;-84
2022/01/07 00:57:44;;;;;;;33.87;14.53;;;1.30;99.90;;;;;;5094826;28;20944;-84
2022/01/07 01:00:14;;;;;;;25.20;14.37;;;1.30;99.90;;;;;;5095088;28;20446;-84
2022/01/07 01:02:40;;;;;;;23.60;12.97;;;1.30;99.90;;;;;;5094738;28;20214;-83
2022/01/07 01:05:08;;;;;;;26.23;14.30;;;1.30;99.90;;;;;;5094060;28;20407;-86
2022/01/07 01:07:33;;;;;;;22.50;13.03;;;1.30;99.90;;;;;;5094169;28;20176;-84
2022/01/07 01:10:06;;;;;;;25.83;15.03;;;1.40;99.90;;;;;;5094268;28;20417;-85
2022/01/07 01:12:33;;;;;;;22.27;11.70;;;1.40;99.90;;;;;;5094335;28;20521;-86
2022/01/07 01:14:58;;;;;;;20.07;11.90;;;1.40;99.90;;;;;;5094181;28;20492;-89
2022/01/07 01:17:24;;;;;;;27.70;13.70;;;1.40;99.90;;;;;;5094103;28;20405;-85
2022/01/07 01:19:49;;;;;;;23.20;12.57;;;1.50;99.90;;;;;;5092947;28;20205;-85
2022/01/07 01:22:15;;;;;;;27.13;12.53;;;1.50;99.90;;;;;;5092388;28;20173;-84
2022/01/07 01:24:41;;;;;;;27.60;12.10;;;1.50;99.90;;;;;;5093888;28;20529;-84
2022/01/07 01:27:06;;;;;;;24.80;11.23;;;1.50;99.90;;;;;;5093977;28;20410;-84
2022/01/07 01:29:32;;;;;;;26.20;13.83;;;1.50;99.90;;;;;;5093581;28;20270;-83
2022/01/07 01:31:58;;;;;;;21.33;11.93;;;1.50;99.90;;;;;;5093750;28;20251;-84
2022/01/07 01:34:23;;;;;;;26.77;13.90;;;1.60;99.90;;;;;;5093508;28;20160;-84
2022/01/07 01:36:49;;;;;;;22.53;11.70;;;1.60;99.90;;;;;;5094037;28;20640;-83
2022/01/07 01:39:14;;;;;;;23.80;11.20;;;1.60;99.90;;;;;;5113999;28;20211;-85
2022/01/07 01:41:42;;;;;;;20.00;10.10;;;1.60;99.90;;;;;;5114104;28;20250;-84
2022/01/07 01:44:07;;;;;;;21.87;10.70;;;1.60;99.90;;;;;;5113918;28;20703;-84
2022/01/07 01:46:33;;;;;;;19.43;9.90;;;1.60;99.90;;;;;;5113724;28;20453;-85
2022/01/07 01:48:58;;;;;;;17.10;10.70;;;1.60;99.90;;;;;;5095194;28;20417;-84
2022/01/07 01:51:24;;;;;;;17.73;9.03;;;1.60;99.90;;;;;;5113684;28;20182;-83
2022/01/07 01:53:53;;;;;;;27.30;10.93;;;1.60;99.90;;;;;;5095439;28;20187;-84
2022/01/07 01:56:18;;;;;;;22.30;10.10;;;1.60;99.90;;;;;;5114028;28;20176;-84
2022/01/07 01:58:44;;;;;;;17.57;10.30;;;1.70;99.90;;;;;;5113291;28;20465;-83
2022/01/07 02:01:09;;;;;;;27.93;10.23;;;1.70;99.90;;;;;;5113392;28;20584;-84
2022/01/07 02:03:35;;;;;;;21.87;11.20;;;1.70;99.90;;;;;;5112939;28;20202;-83
2022/01/07 02:06:00;;;;;;;18.83;8.67;;;1.70;99.90;;;;;;5094902;28;20181;-83
2022/01/07 02:08:26;;;;;;;18.73;9.93;;;1.70;99.90;;;;;;5113375;28;20216;-83
2022/01/07 02:10:54;;;;;;;18.07;8.43;;;1.70;99.90;;;;;;5095114;28;20639;-84
2022/01/07 02:13:19;;;;;;;22.10;9.27;;;1.80;99.90;;;;;;5113223;28;20168;-84
2022/01/07 02:15:46;;;;;;;20.20;9.67;;;1.80;99.90;;;;;;5095026;28;20474;-84
2022/01/07 02:18:12;;;;;;;17.37;9.63;;;1.80;99.90;;;;;;5112709;28;20639;-85
2022/01/07 02:20:37;;;;;;;19.70;10.60;;;1.70;99.90;;;;;;5113217;28;20443;-85
2022/01/07 02:23:03;;;;;;;14.23;7.53;;;1.70;99.90;;;;;;5113081;28;20274;-84
2022/01/07 02:25:29;;;;;;;13.63;9.00;;;1.70;99.90;;;;;;5113048;28;20174;-85
2022/01/07 02:27:55;;;;;;;25.37;8.40;;;1.70;99.90;;;;;;5094901;28;20175;-84
2022/01/07 02:30:24;;;;;;;22.70;8.07;;;1.70;99.90;;;;;;5113105;28;20178;-84
2022/01/07 02:32:50;;;;;;;18.20;8.50;;;1.70;99.90;;;;;;5112094;28;20486;-85
2022/01/07 02:35:18;;;;;;;21.50;8.50;;;1.70;99.90;;;;;;5094588;28;21016;-84
2022/01/07 02:37:43;;;;;;;25.13;8.53;;;1.70;99.90;;;;;;5112683;28;20615;-84
2022/01/07 02:40:10;;;;;;;19.10;8.83;;;1.70;99.90;;;;;;5112918;28;20411;-85
2022/01/07 02:42:36;;;;;;;18.27;8.17;;;1.70;99.90;;;;;;5094228;28;20172;-84
2022/01/07 02:45:08;;;;;;;17.70;9.33;;;1.70;99.90;;;;;;5094373;28;20528;-84
2022/01/07 02:47:44;;;;;;;13.57;6.43;;;1.70;99.90;;;;;;5112788;28;20416;-85
2022/01/07 02:50:09;;;;;;;15.27;8.90;;;1.70;99.90;;;;;;5094570;28;20420;-85
2022/01/07 02:52:35;;;;;;;14.93;8.50;;;1.80;99.90;;;;;;5094493;28;20481;-85
2022/01/07 02:55:00;;;;;;;17.33;7.73;;;1.70;99.90;;;;;;5112767;28;20174;-85
2022/01/07 02:57:26;;;;;;;17.90;7.00;;;1.70;99.90;;;;;;5112634;28;20641;-85
2022/01/07 02:59:51;;;;;;;15.17;8.40;;;1.70;99.90;;;;;;5112577;28;20337;-84
2022/01/07 03:02:17;;;;;;;20.40;9.20;;;1.70;99.90;;;;;;5112679;28;20163;-84
2022/01/07 03:04:42;;;;;;;14.90;8.83;;;1.70;99.90;;;;;;5112129;28;20183;-85
2022/01/07 03:07:08;;;;;;;14.20;7.10;;;1.70;99.90;;;;;;5094130;28;20642;-84
2022/01/07 03:09:33;;;;;;;12.10;6.67;;;1.70;99.90;;;;;;5094340;28;20234;-84
2022/01/07 03:11:59;;;;;;;17.87;6.50;;;1.70;99.90;;;;;;5112585;28;20571;-83
2022/01/07 03:14:25;;;;;;;13.60;6.60;;;1.70;99.90;;;;;;5094382;28;20255;-85
2022/01/07 03:16:50;;;;;;;12.83;5.73;;;1.80;99.90;;;;;;5094215;28;20176;-84
2022/01/07 03:19:16;;;;;;;18.37;6.70;;;1.80;99.90;;;;;;5111964;28;20461;-84
2022/01/07 03:21:42;;;;;;;12.97;6.10;;;1.80;99.90;;;;;;5094229;28;20172;-85
2022/01/07 03:24:07;;;;;;;12.13;6.20;;;1.80;99.90;;;;;;5112290;28;20178;-84
2022/01/07 03:26:33;;;;;;;14.03;6.90;;;1.80;99.90;;;;;;5112670;28;20177;-85
2022/01/07 03:28:58;;;;;;;12.47;5.20;;;1.80;99.90;;;;;;5112532;28;20714;-84
2022/01/07 03:31:23;;;;;;;18.33;6.40;;;1.80;99.90;;;;;;5112514;28;20164;-84
2022/01/07 03:33:52;;;;;;;12.77;6.10;;;1.80;99.90;;;;;;5112039;28;20505;-83
2022/01/07 03:36:20;;;;;;;10.17;5.37;;;1.80;99.90;;;;;;5112564;28;20228;-84
2022/01/07 03:38:46;;;;;;;18.00;6.13;;;1.80;99.90;;;;;;5112139;28;20473;-85
2022/01/07 03:41:11;;;;;;;13.87;6.10;;;1.80;99.90;;;;;;5112665;28;20410;-85
2022/01/07 03:43:37;;;;;;;13.93;6.63;;;1.80;99.90;;;;;;5113128;28;20164;-88
2022/01/07 03:46:02;;;;;;;10.70;5.60;;;1.70;99.90;;;;;;5097908;28;20163;-87
2022/01/07 03:48:28;;;;;;;13.53;6.47;;;1.70;99.90;;;;;;5116020;28;20168;-85
2022/01/07 03:50:53;;;;;;;6.80;4.47;;;1.80;99.90;;;;;;5116669;28;20167;-85
2022/01/07 03:53:19;;;;;;;6.80;4.37;;;1.80;99.90;;;;;;5116108;28;20171;-85
2022/01/07 03:55:45;;;;;;;17.90;6.23;;;1.80;99.90;;;;;;5097366;28;20763;-85
2022/01/07 03:58:10;;;;;;;8.50;5.73;;;1.80;99.90;;;;;;5116699;28;20205;-84
2022/01/07 04:00:39;;;;;;;10.80;4.73;;;1.80;99.90;;;;;;5117612;28;20201;-88
2022/01/07 04:03:08;;;;;;;8.80;4.30;;;1.80;99.90;;;;;;5098754;28;20258;-85
2022/01/07 04:05:33;;;;;;;16.10;5.80;;;1.90;99.90;;;;;;5116175;28;20426;-85
2022/01/07 04:07:59;;;;;;;12.20;4.67;;;1.90;99.90;;;;;;5098275;28;20406;-84
2022/01/07 04:10:25;;;;;;;12.77;5.13;;;1.90;99.90;;;;;;5116115;28;20290;-86
2022/01/07 04:12:51;;;;;;;13.03;4.17;;;1.90;99.90;;;;;;5098031;28;20501;-85
2022/01/07 04:15:17;;;;;;;6.17;3.97;;;2.00;99.90;;;;;;5116480;28;20174;-86
2022/01/07 04:17:52;;;;;;;7.67;3.20;;;2.00;99.90;;;;;;5098623;28;20203;-84
2022/01/07 04:20:21;;;;;;;11.87;4.97;;;2.00;99.90;;;;;;5116170;28;20412;-84
2022/01/07 04:22:47;;;;;;;6.70;3.20;;;2.00;99.90;;;;;;5116241;28;20429;-85
2022/01/07 04:25:17;;;;;;;16.67;4.40;;;2.10;99.90;;;;;;5116755;28;20894;-88
2022/01/07 04:27:46;;;;;;;6.53;3.93;;;2.00;99.90;;;;;;5097952;28;20673;-87
2022/01/07 04:30:13;;;;;;;7.10;3.13;;;2.00;99.90;;;;;;5115839;28;21000;-85
2022/01/07 04:32:42;;;;;;;6.87;3.73;;;2.00;99.90;;;;;;5115395;28;20421;-86
2022/01/07 04:35:10;;;;;;;9.57;3.60;;;2.10;99.90;;;;;;5114976;28;20797;-91
2022/01/07 04:37:36;;;;;;;8.60;3.50;;;2.20;99.90;;;;;;5097631;28;20967;-87
2022/01/07 04:40:04;;;;;;;7.57;3.20;;;2.20;99.90;;;;;;5116143;28;20465;-85
2022/01/07 04:42:30;;;;;;;11.20;3.87;;;2.20;99.90;;;;;;5098044;28;20410;-89
2022/01/07 04:44:55;;;;;;;4.33;2.67;;;2.20;99.90;;;;;;5116178;28;20898;-85
2022/01/07 04:47:21;;;;;;;7.50;2.70;;;2.30;99.90;;;;;;5115741;28;20178;-85
2022/01/07 04:49:46;;;;;;;6.70;2.73;;;2.30;99.90;;;;;;5115827;28;20596;-86
2022/01/07 04:52:17;;;;;;;9.93;2.33;;;2.30;99.90;;;;;;5115962;28;20581;-85
2022/01/07 04:54:42;;;;;;;8.53;2.50;;;2.30;99.90;;;;;;5097943;28;20240;-90
2022/01/07 04:57:08;;;;;;;8.40;3.40;;;2.30;99.90;;;;;;5115891;28;20413;-91
2022/01/07 04:59:42;;;;;;;7.00;3.30;;;2.30;99.90;;;;;;5097697;28;20684;-85
2022/01/07 05:02:08;;;;;;;8.93;2.90;;;2.30;99.90;;;;;;5097630;28;20178;-89
2022/01/07 05:04:33;;;;;;;7.10;2.97;;;2.20;99.90;;;;;;5097349;28;20433;-86
2022/01/07 05:06:59;;;;;;;6.77;2.97;;;2.20;99.90;;;;;;5115445;28;20176;-89
2022/01/07 05:09:24;;;;;;;7.67;3.90;;;2.10;99.90;;;;;;5097058;28;20266;-85
2022/01/07 05:11:52;;;;;;;5.50;2.80;;;2.10;99.90;;;;;;5097560;28;20229;-88
2022/01/07 05:14:18;;;;;;;3.60;2.70;;;2.10;99.90;;;;;;5097078;28;20198;-86
2022/01/07 05:16:44;;;;;;;4.63;2.80;;;2.00;99.90;;;;;;5097011;28;20511;-85
2022/01/07 05:19:09;;;;;;;8.50;4.30;;;2.00;99.90;;;;;;5114415;28;20537;-89
2022/01/07 05:21:36;;;;;;;5.90;3.03;;;1.90;99.90;;;;;;5096782;28;20416;-85
2022/01/07 05:24:02;;;;;;;6.47;3.37;;;1.90;99.90;;;;;;5096791;28;20173;-86
2022/01/07 05:26:28;;;;;;;7.60;2.50;;;1.80;99.90;;;;;;5114821;28;20817;-86
2022/01/07 05:28:53;;;;;;;9.07;3.83;;;1.80;99.90;;;;;;5114822;28;20413;-88
2022/01/07 05:31:22;;;;;;;9.23;4.17;;;1.80;99.90;;;;;;5114641;28;20180;-85
2022/01/07 05:33:48;;;;;;;12.93;4.80;;;1.80;99.90;;;;;;5096106;28;20299;-86
2022/01/07 05:36:16;;;;;;;9.07;3.33;;;1.80;99.90;;;;;;5114568;28;20449;-85
2022/01/07 05:38:45;;;;;;;7.53;2.83;;;1.80;99.90;;;;;;5114240;28;20227;-87
2022/01/07 05:41:12;;;;;;;4.13;3.03;;;1.80;99.90;;;;;;5096199;28;20420;-85
2022/01/07 05:43:38;;;;;;;11.10;3.80;;;1.80;99.90;;;;;;5114437;28;20763;-87
2022/01/07 05:46:04;;;;;;;9.90;3.50;;;1.70;99.90;;;;;;5114438;28;20435;-87
2022/01/07 05:48:32;;;;;;;4.07;2.00;;;1.70;99.90;;;;;;5095854;28;20185;-87
2022/01/07 05:50:58;;;;;;;7.50;3.30;;;1.70;99.90;;;;;;5114343;28;20409;-88
2022/01/07 05:53:23;;;;;;;10.50;4.53;;;1.70;99.90;;;;;;5096044;28;20426;-87
2022/01/07 05:55:49;;;;;;;6.47;3.53;;;1.60;99.90;;;;;;5095958;28;20167;-86
2022/01/07 05:58:14;;;;;;;8.73;4.20;;;1.60;99.90;;;;;;5095139;28;20298;-86
2022/01/07 06:00:40;;;;;;;11.40;3.43;;;1.60;99.90;;;;;;5114068;28;20647;-86
2022/01/07 06:03:05;;;;;;;9.03;3.40;;;1.60;99.90;;;;;;5113768;28;20628;-86
2022/01/07 06:05:31;;;;;;;9.10;3.40;;;1.50;99.90;;;;;;5114126;28;20209;-87
2022/01/07 06:07:56;;;;;;;4.50;2.87;;;1.50;99.90;;;;;;5095086;28;20225;-87
2022/01/07 06:10:22;;;;;;;7.07;3.33;;;1.50;99.90;;;;;;5096005;28;20240;-87
2022/01/07 06:12:50;;;;;;;6.37;3.70;;;1.60;99.90;;;;;;5114035;28;20646;-86
2022/01/07 06:15:16;;;;;;;7.93;4.70;;;1.60;99.90;;;;;;5095778;28;20167;-86
2022/01/07 06:17:50;;;;;;;7.10;4.13;;;1.60;99.90;;;;;;5095064;28;20424;-85
2022/01/07 06:20:18;;;;;;;6.57;4.40;;;1.70;99.90;;;;;;5113876;28;20706;-85
2022/01/07 06:22:44;;;;;;;10.23;4.57;;;1.60;99.90;;;;;;5113821;28;20465;-86
2022/01/07 06:25:10;;;;;;;16.07;4.70;;;1.60;99.90;;;;;;5113693;28;20474;-85
2022/01/07 06:27:35;;;;;;;14.67;5.00;;;1.60;99.90;;;;;;5113777;28;20160;-85
2022/01/07 06:30:01;;;;;;;4.93;4.20;;;1.60;99.90;;;;;;5095523;28;20441;-86
2022/01/07 06:32:26;;;;;;;9.80;4.03;;;1.60;99.90;;;;;;5095421;28;20195;-88
2022/01/07 06:34:52;;;;;;;9.20;3.13;;;1.60;99.90;;;;;;5096050;28;20175;-86
2022/01/07 06:37:18;;;;;;;11.37;3.50;;;1.60;99.90;;;;;;5113866;28;20211;-88
2022/01/07 06:39:44;;;;;;;9.10;4.03;;;1.60;99.90;;;;;;5095830;28;20465;-89
2022/01/07 06:42:10;;;;;;;6.57;3.13;;;1.60;99.90;;;;;;5095725;28;20163;-89
2022/01/07 06:44:36;;;;;;;7.87;3.40;;;1.60;99.90;;;;;;5113849;28;20839;-88
2022/01/07 06:47:03;;;;;;;11.40;4.27;;;1.60;99.90;;;;;;5113624;28;20174;-88
2022/01/07 06:49:28;;;;;;;13.10;3.67;;;1.60;99.90;;;;;;5095293;28;20471;-87
2022/01/07 06:51:54;;;;;;;9.03;3.80;;;1.60;99.90;;;;;;5113722;28;20412;-87
2022/01/07 06:54:19;;;;;;;8.43;3.77;;;1.60;99.90;;;;;;5095477;28;20615;-87
2022/01/07 06:56:45;;;;;;;14.50;5.63;;;1.60;99.90;;;;;;5113405;28;20171;-86
2022/01/07 06:59:15;;;;;;;10.63;4.20;;;1.70;99.90;;;;;;5113206;28;20671;-86
2022/01/07 07:01:46;;;;;;;8.93;4.87;;;1.70;99.90;;;;;;5113367;28;20497;-86
2022/01/07 07:04:12;;;;;;;6.50;3.40;;;1.80;99.90;;;;;;5112905;28;20410;-86
2022/01/07 07:06:46;;;;;;;9.67;3.93;;;1.80;99.90;;;;;;5095035;28;20530;-86
2022/01/07 07:09:12;;;;;;;11.40;4.67;;;1.80;99.90;;;;;;5094841;28;20535;-87
2022/01/07 07:11:39;;;;;;;10.40;3.50;;;1.80;99.90;;;;;;5095065;28;20413;-87
2022/01/07 07:14:05;;;;;;;6.07;4.27;;;1.80;99.90;;;;;;5113254;28;20413;-87
2022/01/07 07:16:30;;;;;;;6.50;3.77;;;1.80;99.90;;;;;;5112831;28;20422;-87
2022/01/07 07:18:56;;;;;;;9.83;6.27;;;1.80;99.90;;;;;;5115806;28;20214;-86
2022/01/07 07:21:21;;;;;;;7.93;3.40;;;1.80;99.90;;;;;;5099009;28;20182;-86
2022/01/07 07:23:50;;;;;;;12.73;3.57;;;1.80;99.90;;;;;;5099046;28;20643;-86
2022/01/07 07:26:15;;;;;;;4.90;3.57;;;1.80;99.90;;;;;;5116746;28;20172;-86
2022/01/07 07:28:41;;;;;;;6.67;3.53;;;1.80;99.90;;;;;;5116563;28;20456;-86
2022/01/07 07:31:11;;;;;;;6.37;3.50;;;1.80;99.90;;;;;;5098685;28;20172;-86
2022/01/07 07:36:30;;;;;;;6.30;3.20;;;1.70;99.90;;;;;;5117059;28;20440;-85
2022/01/07 07:38:57;;;;;;;10.70;3.90;;;1.80;99.90;;;;;;5094866;28;20480;-86
2022/01/07 07:41:23;;;;;;;7.73;4.00;;;1.80;99.90;;;;;;5096349;28;20410;-86
2022/01/07 07:43:50;;;;;;;6.57;3.43;;;1.80;99.90;;;;;;5095143;28;20753;-85
2022/01/07 07:46:18;;;;;;;8.63;4.30;;;1.80;99.90;;;;;;5095014;28;20179;-85
2022/01/07 07:48:47;;;;;;;6.10;3.87;;;1.80;99.90;;;;;;5094649;28;20402;-89
2022/01/07 07:51:13;;;;;;;9.30;4.43;;;1.80;99.90;;;;;;5096283;28;20449;-87
2022/01/07 07:53:40;;;;;;;5.90;4.10;;;1.70;99.90;;;;;;5095099;28;20440;-87
2022/01/07 07:56:06;;;;;;;10.07;5.07;;;1.80;99.90;;;;;;5094943;28;20422;-85
2022/01/07 07:58:31;;;;;;;3.83;3.33;;;1.80;99.90;;;;;;5095924;28;21097;-87
2022/01/07 08:00:58;;;;;;;10.63;3.90;;;1.70;99.90;;;;;;5096041;28;20413;-88
2022/01/07 08:03:25;;;;;;;7.60;3.83;;;1.80;99.90;;;;;;5095945;28;20176;-86
2022/01/07 08:05:50;;;;;;;9.73;4.60;;;1.80;99.90;;;;;;5096047;28;20764;-86
2022/01/07 08:08:16;;;;;;;9.97;5.07;;;1.80;99.90;;;;;;5095883;28;20412;-86
2022/01/07 08:10:47;;;;;;;5.67;3.40;;;1.90;99.90;;;;;;5094573;28;20266;-87
2022/01/07 08:18:38;;;;;;;6.83;3.70;;;1.90;99.90;;;;;;5083155;28;20212;-87
2022/01/07 08:21:11;;;;;;;6.90;4.57;;;1.90;99.90;;;;;;5095625;28;20759;-87
2022/01/07 08:23:39;;;;;;;8.17;4.33;;;1.90;99.90;;;;;;5094234;28;20640;-86
2022/01/07 08:26:08;;;;;;;5.30;3.50;;;1.90;99.90;;;;;;5095514;28;20406;-87
2022/01/07 08:28:40;;;;;;;6.30;3.77;;;2.00;99.90;;;;;;5095623;28;20421;-86
2022/01/07 08:36:22;;;;;;;8.17;4.27;;;2.00;99.90;;;;;;5095603;28;20433;-86
2022/01/07 08:38:49;;;;;;;5.90;4.20;;;2.00;99.90;;;;;;5093871;28;20561;-86
2022/01/07 08:41:15;;;;;;;9.17;4.10;;;2.00;99.90;;;;;;5094084;28;20513;-87
2022/01/07 08:43:40;;;;;;;7.27;4.10;;;2.00;99.90;;;;;;5095348;28;20427;-86
2022/01/07 08:46:10;;;;;;;7.83;3.83;;;2.10;99.90;;;;;;5095277;28;20737;-86
2022/01/07 08:48:37;;;;;;;4.97;4.17;;;2.10;99.90;;;;;;5093472;28;20222;-85
2022/01/07 08:51:04;;;;;;;5.83;4.67;;;2.10;99.90;;;;;;5093914;28;20471;-86
2022/01/07 08:53:31;;;;;;;6.23;3.40;;;2.10;99.90;;;;;;5094934;28;20472;-87
2022/01/07 08:55:57;;;;;;;6.77;4.07;;;2.10;99.90;;;;;;5093817;28;20504;-87
2022/01/07 08:58:22;;;;;;;6.83;3.70;;;2.20;99.90;;;;;;5093809;28;20553;-87
2022/01/07 09:00:48;;;;;;;6.63;4.20;;;2.20;99.90;;;;;;5095054;28;20178;-86
2022/01/07 09:03:13;;;;;;;7.47;4.97;;;2.10;99.90;;;;;;5094448;28;20261;-86
2022/01/07 09:05:39;;;;;;;5.73;4.00;;;2.20;99.90;;;;;;5093576;28;20176;-87
2022/01/07 09:08:07;;;;;;;7.23;4.43;;;2.20;99.90;;;;;;5093517;28;20659;-87
2022/01/07 09:10:33;;;;;;;4.77;4.13;;;2.20;99.90;;;;;;5093489;28;20236;-86
2022/01/07 09:12:58;;;;;;;7.20;4.90;;;2.20;99.90;;;;;;5094645;28;20414;-86
2022/01/07 09:15:24;;;;;;;6.13;4.20;;;2.20;99.90;;;;;;5094613;28;20410;-86
2022/01/07 09:17:49;;;;;;;9.20;4.73;;;2.20;99.90;;;;;;5092943;28;20223;-85
2022/01/07 09:20:15;;;;;;;8.00;5.50;;;2.10;99.90;;;;;;5094632;28;20651;-89
2022/01/07 09:22:41;;;;;;;4.87;3.57;;;2.20;99.90;;;;;;5095153;28;20167;-87
2022/01/07 09:25:07;;;;;;;7.47;4.17;;;2.10;99.90;;;;;;5093544;28;20755;-86
2022/01/07 09:27:33;;;;;;;6.37;5.23;;;2.20;99.90;;;;;;5094332;28;20256;-85
2022/01/07 09:29:59;;;;;;;6.47;4.93;;;2.20;99.90;;;;;;5094383;28;20176;-86
2022/01/07 09:32:24;;;;;;;7.37;5.30;;;2.20;99.90;;;;;;5092604;28;20414;-89
2022/01/07 09:34:51;;;;;;;6.37;4.40;;;2.20;99.90;;;;;;5092984;28;20583;-86
2022/01/07 09:37:16;;;;;;;7.00;5.10;;;2.20;99.90;;;;;;5099374;28;20298;-89
2022/01/07 09:39:42;;;;;;;10.17;4.50;;;2.20;99.90;;;;;;5097357;28;20580;-89
2022/01/07 09:42:08;;;;;;;6.60;5.27;;;2.20;99.90;;;;;;5097025;28;20635;-90
2022/01/07 09:44:37;;;;;;;7.90;5.00;;;2.20;99.90;;;;;;5097087;28;20190;-89
2022/01/07 09:47:03;;;;;;;6.40;5.23;;;2.20;99.90;;;;;;5096514;28;20977;-90
2022/01/07 09:49:34;;;;;;;7.20;4.30;;;2.20;99.90;;;;;;5096990;28;20410;-89
2022/01/07 09:52:00;;;;;;;6.33;4.20;;;2.20;99.90;;;;;;5096855;28;20414;-89
2022/01/07 09:54:26;;;;;;;5.80;3.67;;;2.20;99.90;;;;;;5097132;28;20427;-89
2022/01/07 09:56:52;;;;;;;4.73;3.30;;;2.20;99.90;;;;;;5096920;28;20410;-89
2022/01/07 09:59:18;;;;;;;7.23;4.57;;;2.20;99.90;;;;;;5096785;28;20587;-89
2022/01/07 10:02:01;;;;;;;6.70;4.70;;;2.20;99.90;;;;;;5096844;28;20196;-90
2022/01/07 10:04:35;;;;;;;5.73;3.97;;;2.20;99.90;;;;;;5096730;28;20433;-89
2022/01/07 10:07:12;;;;;;;5.33;4.00;;;2.10;99.90;;;;;;5096914;28;20398;-89
2022/01/07 10:09:56;;;;;;;6.93;3.40;;;2.10;99.90;;;;;;5096865;28;20463;-90
2022/01/07 10:12:21;;;;;;;7.97;5.13;;;2.20;99.90;;;;;;5096720;28;20409;-90
2022/01/07 10:15:17;;;;;;;4.37;3.40;;;2.10;99.90;;;;;;5096789;28;20422;-89
2022/01/07 10:18:00;;;;;;;7.33;4.70;;;2.10;99.90;;;;;;5096402;28;20195;-89
2022/01/07 10:20:31;;;;;;;4.87;3.93;;;2.20;99.90;;;;;;5096495;28;20466;-89
2022/01/07 10:23:05;;;;;;;7.20;4.63;;;2.10;99.90;;;;;;5124342;22;20520;-89
2022/01/07 10:25:53;;;;;;;6.43;4.00;;;2.20;99.90;;;;;;5072858;28;20546;-88
2022/01/07 10:28:19;;;;;;;4.57;3.50;;;2.20;99.90;;;;;;5073675;28;20406;-88
2022/01/07 10:30:49;;;;;;;8.63;4.93;;;2.20;99.90;;;;;;5072505;28;20928;-88
2022/01/07 10:33:35;;;;;;;7.00;5.00;;;2.30;99.90;;;;;;5073462;28;20424;-89
2022/01/07 10:36:09;;;;;;;9.40;6.13;;;2.30;99.90;;;;;;5072566;28;20838;-89
2022/01/07 10:38:48;;;;;;;5.60;4.73;;;2.30;99.90;;;;;;5072564;28;20458;-89
2022/01/07 10:41:14;;;;;;;6.40;4.40;;;2.30;99.90;;;;;;5074118;28;20423;-89
2022/01/07 10:43:40;;;;;;;7.60;4.83;;;2.40;99.90;;;;;;5072449;28;20802;-88
2022/01/07 10:46:11;;;;;;;7.47;5.23;;;2.40;99.90;;;;;;5072135;28;20427;-88
2022/01/07 10:48:43;;;;;;;7.03;5.03;;;2.40;99.90;;;;;;5072023;28;20423;-89
2022/01/07 10:51:13;;;;;;;6.67;5.47;;;2.50;99.90;;;;;;5073024;28;20410;-88
2022/01/07 10:53:40;;;;;;;7.90;5.10;;;2.50;99.90;;;;;;5077672;28;20411;-90
2022/01/07 10:56:09;;;;;;;7.20;4.70;;;2.50;99.90;;;;;;5078870;28;20423;-88
2022/01/07 10:58:57;;;;;;;7.30;5.80;;;2.50;99.90;;;;;;5079813;28;20470;-89
2022/01/07 11:01:32;;;;;;;8.03;4.73;;;2.50;99.90;;;;;;5079576;28;20922;-88
2022/01/07 11:03:59;;;;;;;5.90;4.60;;;2.50;99.90;;;;;;5078808;28;20852;-88
2022/01/07 11:06:26;;;;;;;11.80;6.90;;;2.50;99.90;;;;;;5080003;28;20436;-89
2022/01/07 11:08:54;;;;;;;9.00;5.80;;;2.60;99.90;;;;;;5080281;28;20415;-89
2022/01/07 11:11:20;;;;;;;8.50;5.13;;;2.60;99.90;;;;;;5080087;28;20811;-89
2022/01/07 11:13:46;;;;;;;10.93;5.57;;;2.60;99.90;;;;;;5078700;28;20418;-89
2022/01/07 11:16:13;;;;;;;8.37;5.37;;;2.60;99.90;;;;;;5080159;28;20498;-90
2022/01/07 11:18:41;;;;;;;8.53;5.43;;;2.60;99.90;;;;;;5078614;28;20534;-88
2022/01/07 11:21:09;;;;;;;7.90;5.20;;;2.60;99.90;;;;;;5078931;28;20418;-89
2022/01/07 11:23:38;;;;;;;7.23;5.00;;;2.60;99.90;;;;;;5078568;28;20928;-89
2022/01/07 11:26:09;;;;;;;7.60;4.97;;;2.70;99.90;;;;;;5078777;28;20419;-89
2022/01/07 11:28:36;;;;;;;12.00;5.80;;;2.60;99.90;;;;;;5079967;28;20476;-89
2022/01/07 11:31:14;;;;;;;8.47;5.73;;;2.70;99.90;;;;;;5078745;28;20938;-90
2022/01/07 11:33:41;;;;;;;8.80;5.73;;;2.60;99.90;;;;;;5078609;28;20414;-90
2022/01/07 11:36:10;;;;;;;8.37;7.13;;;2.70;99.90;;;;;;5079078;28;20483;-90
2022/01/07 11:38:46;;;;;;;6.10;5.20;;;2.70;99.90;;;;;;5079979;28;20517;-89
2022/01/07 11:41:15;;;;;;;11.33;6.73;;;2.80;99.90;;;;;;5078448;28;20450;-89
2022/01/07 11:43:46;;;;;;;8.70;6.80;;;2.70;99.90;;;;;;5078957;28;20763;-90
2022/01/07 11:46:29;;;;;;;9.87;6.37;;;2.80;99.90;;;;;;5079071;28;20407;-89
2022/01/07 11:48:58;;;;;;;12.00;7.30;;;2.80;99.90;;;;;;5078659;28;20450;-89
2022/01/07 11:51:38;;;;;;;11.40;7.17;;;2.80;99.90;;;;;;5079242;28;20407;-89
2022/01/07 11:54:06;;;;;;;15.97;8.20;;;2.80;99.90;;;;;;5082092;28;20562;-88
2022/01/07 11:56:34;;;;;;;10.80;6.40;;;2.80;99.90;;;;;;5080852;28;20905;-89
2022/01/07 11:59:12;;;;;;;11.07;7.40;;;2.90;99.90;;;;;;5078276;28;20465;-84
2022/01/07 12:01:40;;;;;;;14.90;8.37;;;2.90;99.90;;;;;;5078670;28;20403;-88
2022/01/07 12:04:15;;;;;;;10.60;7.17;;;2.90;99.90;;;;;;5077978;28;20424;-88
2022/01/07 12:06:41;;;;;;;13.03;7.73;;;3.00;99.90;;;;;;5074595;28;20460;-88
2022/01/07 12:09:10;;;;;;;12.40;8.20;;;2.90;99.90;;;;;;5075894;28;20455;-87
2022/01/07 12:11:44;;;;;;;10.90;8.27;;;2.90;99.90;;;;;;5075554;28;21002;-85
2022/01/07 12:14:14;;;;;;;11.53;7.77;;;3.00;99.90;;;;;;5075417;28;20427;-86
2022/01/07 12:16:45;;;;;;;11.80;9.57;;;3.00;99.90;;;;;;5075018;28;20407;-85
2022/01/07 12:19:21;;;;;;;13.13;8.00;;;3.10;99.90;;;;;;5073934;28;20908;-85
2022/01/07 12:21:49;;;;;;;13.27;8.27;;;3.10;99.90;;;;;;5074976;28;20486;-85
2022/01/07 12:24:17;;;;;;;14.97;9.77;;;3.10;99.90;;;;;;5075344;28;20412;-85
2022/01/07 12:26:43;;;;;;;17.63;9.93;;;3.20;99.90;;;;;;5075152;28;20407;-85
2022/01/07 12:29:20;;;;;;;13.03;8.97;;;3.20;99.90;;;;;;5075071;28;20888;-85
2022/01/07 12:31:50;;;;;;;12.53;9.80;;;3.20;99.90;;;;;;5074732;28;20177;-85
2022/01/07 12:34:27;;;;;;;17.37;9.73;;;3.20;99.90;;;;;;5073695;28;20411;-85
2022/01/07 12:37:03;;;;;;;14.50;10.77;;;3.20;99.90;;;;;;5075134;28;20494;-85
2022/01/07 12:39:32;;;;;;;14.60;10.20;;;3.30;99.90;;;;;;5074803;28;20471;-85
2022/01/07 12:41:58;;;;;;;16.43;10.30;;;3.30;99.90;;;;;;5074873;28;20409;-85
2022/01/07 12:44:24;;;;;;;13.30;9.77;;;3.50;99.90;;;;;;5074787;28;20418;-85
2022/01/07 12:46:57;;;;;;;15.80;9.60;;;3.60;99.90;;;;;;5074363;28;20395;-85
2022/01/07 12:49:40;;;;;;;17.83;10.63;;;3.60;99.90;;;;;;5074610;28;20498;-85
2022/01/07 12:52:08;;;;;;;17.20;11.00;;;3.70;99.90;;;;;;5074623;28;20403;-85
2022/01/07 12:54:35;;;;;;;16.73;11.33;;;3.70;99.90;;;;;;5074643;28;20414;-85
2022/01/07 12:57:01;;;;;;;20.10;11.27;;;3.70;99.90;;;;;;5073082;28;20423;-85
2022/01/07 12:59:29;;;;;;;15.63;9.83;;;3.80;99.90;;;;;;5073195;28;20553;-85
2022/01/07 13:01:55;;;;;;;11.80;9.60;;;4.00;99.90;;;;;;5074122;28;20820;-85
2022/01/07 13:04:23;;;;;;;18.10;11.27;;;4.10;99.90;;;;;;5074566;28;20415;-85
2022/01/07 13:06:55;;;;;;;18.63;12.63;;;4.10;99.90;;;;;;5074373;28;20569;-85